Time;durP1;ratioP1;P1;durP2;ratioP2;P2;SDS_P1;SDS_P2;PMS_P1;PMS_P2;Temp;Humidity;BMP_temperature;BMP_pressure;BME280_temperature;BME280_humidity;BME280_pressure;Samples;Min_cycle;Max_cycle;Signal;HPM_P1;HPM_P2
2022/07/23 00:00:32;;;;;;;5.15;2.00;;;15.40;99.90;;;;;;5072770;28;20032;-67
2022/07/23 00:02:57;;;;;;;4.82;2.25;;;15.40;99.90;;;;;;5072850;28;20185;-67
2022/07/23 00:05:23;;;;;;;7.07;2.47;;;15.40;99.90;;;;;;5072927;28;20032;-67
2022/07/23 00:07:49;;;;;;;4.78;2.20;;;15.40;99.90;;;;;;5072733;28;20098;-66
2022/07/23 00:10:14;;;;;;;5.65;2.13;;;15.40;99.90;;;;;;5053538;28;20068;-67
2022/07/23 00:12:40;;;;;;;3.38;2.20;;;15.40;99.90;;;;;;5072701;28;20066;-67
2022/07/23 00:15:06;;;;;;;5.90;2.30;;;15.40;99.90;;;;;;5072975;28;20108;-67
2022/07/23 00:17:32;;;;;;;7.30;2.45;;;15.40;99.90;;;;;;5054926;28;20051;-68
2022/07/23 00:19:58;;;;;;;6.60;2.60;;;15.30;99.90;;;;;;5072406;28;20036;-67
2022/07/23 00:22:24;;;;;;;8.82;2.10;;;15.30;99.90;;;;;;5072416;28;20068;-66
2022/07/23 00:24:49;;;;;;;7.70;2.28;;;15.30;99.90;;;;;;5072373;28;20445;-67
2022/07/23 00:27:15;;;;;;;5.15;2.30;;;15.30;99.90;;;;;;5054455;28;20114;-67
2022/07/23 00:29:40;;;;;;;6.70;2.30;;;15.30;99.90;;;;;;5072319;28;20068;-68
2022/07/23 00:32:06;;;;;;;3.53;2.10;;;15.20;99.90;;;;;;5072417;28;20041;-68
2022/07/23 00:34:32;;;;;;;4.88;2.30;;;15.20;99.90;;;;;;5072370;28;20120;-68
2022/07/23 00:36:57;;;;;;;4.88;2.53;;;15.20;99.90;;;;;;5072349;28;20067;-68
2022/07/23 00:39:23;;;;;;;6.15;2.72;;;15.30;99.90;;;;;;5071933;28;20498;-68
2022/07/23 00:41:49;;;;;;;5.40;2.28;;;15.10;99.90;;;;;;5038023;28;20669;-67
2022/07/23 00:44:22;;;;;;;5.65;2.42;;;15.10;99.90;;;;;;5054517;28;20044;-66
2022/07/23 00:46:53;;;;;;;6.25;2.88;;;15.10;99.90;;;;;;5072172;28;20032;-66
2022/07/23 00:49:27;;;;;;;5.82;2.25;;;15.00;99.90;;;;;;5071828;28;20093;-66
2022/07/23 00:51:54;;;;;;;4.30;2.40;;;15.00;99.90;;;;;;5071881;28;20124;-66
2022/07/23 00:54:22;;;;;;;7.05;2.97;;;15.00;99.90;;;;;;5054088;28;20087;-66
2022/07/23 00:56:47;;;;;;;5.75;2.50;;;15.00;99.90;;;;;;5072138;28;20048;-68
2022/07/23 00:59:14;;;;;;;4.57;2.60;;;15.00;99.90;;;;;;5071772;28;20052;-67
2022/07/23 01:01:40;;;;;;;5.60;2.50;;;15.00;99.90;;;;;;5072204;28;20127;-67
2022/07/23 01:04:05;;;;;;;8.52;2.83;;;15.00;99.90;;;;;;5071971;28;20170;-67
2022/07/23 01:06:36;;;;;;;8.95;2.35;;;15.00;99.90;;;;;;5053853;28;20036;-66
2022/07/23 01:09:04;;;;;;;8.00;3.28;;;14.90;99.90;;;;;;5071905;28;20436;-67
2022/07/23 01:11:31;;;;;;;11.70;4.15;;;15.00;99.90;;;;;;5071545;28;20125;-67
2022/07/23 01:13:56;;;;;;;5.60;3.20;;;14.90;99.90;;;;;;5071909;28;20068;-66
2022/07/23 01:16:22;;;;;;;5.97;2.97;;;14.90;99.90;;;;;;5071741;28;20217;-67
2022/07/23 01:18:48;;;;;;;3.88;2.65;;;15.00;99.90;;;;;;5071815;28;20037;-67
2022/07/23 01:21:18;;;;;;;6.78;4.05;;;15.00;99.90;;;;;;5071118;28;20039;-66
2022/07/23 01:23:44;;;;;;;5.90;3.10;;;15.00;99.90;;;;;;5054170;28;20047;-66
2022/07/23 01:26:09;;;;;;;6.10;2.78;;;14.90;99.90;;;;;;5071694;28;20044;-67
2022/07/23 01:28:35;;;;;;;6.28;3.15;;;15.00;99.90;;;;;;5071672;28;20119;-66
2022/07/23 01:31:00;;;;;;;8.70;3.55;;;14.90;99.90;;;;;;5071287;28;20032;-66
2022/07/23 01:33:26;;;;;;;5.45;3.22;;;14.90;99.90;;;;;;5071614;28;20037;-66
2022/07/23 01:35:51;;;;;;;5.30;3.22;;;14.90;99.90;;;;;;5071605;28;20040;-67
2022/07/23 01:38:17;;;;;;;4.03;3.55;;;15.00;99.90;;;;;;5071609;28;20418;-67
2022/07/23 01:40:42;;;;;;;7.72;3.80;;;14.90;99.90;;;;;;5053217;28;20097;-67
2022/07/23 01:43:08;;;;;;;12.07;3.90;;;14.80;99.90;;;;;;5071346;28;20119;-67
2022/07/23 01:45:33;;;;;;;6.65;3.80;;;14.90;99.90;;;;;;5053681;28;20040;-67
2022/07/23 01:47:59;;;;;;;6.25;3.05;;;14.90;99.90;;;;;;5071359;28;20052;-67
2022/07/23 01:50:25;;;;;;;8.98;3.38;;;14.80;99.90;;;;;;5070912;28;20378;-66
2022/07/23 01:52:50;;;;;;;9.68;3.80;;;14.90;99.90;;;;;;5071430;28;20124;-67
2022/07/23 01:55:16;;;;;;;5.05;2.72;;;14.80;99.90;;;;;;5071585;28;20028;-67
2022/07/23 01:57:41;;;;;;;7.63;3.60;;;14.90;99.90;;;;;;5071424;28;20037;-66
2022/07/23 02:00:08;;;;;;;5.07;3.40;;;14.90;99.90;;;;;;5071129;28;20083;-66
2022/07/23 02:02:33;;;;;;;7.32;3.00;;;14.90;99.90;;;;;;5071115;28;20574;-67
2022/07/23 02:04:59;;;;;;;10.45;3.03;;;14.90;99.90;;;;;;5071086;28;20041;-67
2022/07/23 02:07:24;;;;;;;9.27;3.65;;;14.80;99.90;;;;;;5071241;28;20044;-66
2022/07/23 02:09:50;;;;;;;8.07;3.60;;;14.90;99.90;;;;;;5053099;28;20036;-67
2022/07/23 02:12:15;;;;;;;9.27;3.40;;;14.80;99.90;;;;;;5070983;28;20474;-66
2022/07/23 02:14:41;;;;;;;6.00;3.33;;;14.70;99.90;;;;;;5071213;28;20029;-67
2022/07/23 02:17:06;;;;;;;5.25;3.05;;;14.70;99.90;;;;;;5071133;28;20044;-66
2022/07/23 02:19:32;;;;;;;6.88;2.80;;;14.70;99.90;;;;;;5070731;28;20123;-66
2022/07/23 02:21:57;;;;;;;6.57;3.45;;;14.60;99.90;;;;;;5071120;28;20543;-67
2022/07/23 02:24:23;;;;;;;5.93;3.47;;;14.60;99.90;;;;;;5071221;28;20631;-66
2022/07/23 02:26:49;;;;;;;5.60;2.88;;;14.50;99.90;;;;;;5071122;28;20047;-66
2022/07/23 02:29:14;;;;;;;6.32;3.45;;;14.60;99.90;;;;;;5052954;28;20032;-66
2022/07/23 02:31:40;;;;;;;6.38;3.03;;;14.60;99.90;;;;;;5070971;28;20067;-67
2022/07/23 02:34:06;;;;;;;4.38;2.83;;;14.40;99.90;;;;;;5072096;28;20041;-67
2022/07/23 02:36:32;;;;;;;6.70;3.35;;;14.50;99.90;;;;;;5074606;28;20566;-67
2022/07/23 02:38:58;;;;;;;6.85;3.47;;;14.50;99.90;;;;;;5074569;28;20119;-67
2022/07/23 02:41:23;;;;;;;7.65;3.25;;;14.50;99.90;;;;;;5074140;28;20201;-66
2022/07/23 02:43:49;;;;;;;9.80;3.72;;;14.40;99.90;;;;;;5056504;28;20051;-66
2022/07/23 02:46:15;;;;;;;6.13;3.40;;;14.40;99.90;;;;;;5074408;28;20033;-67
2022/07/23 02:48:41;;;;;;;10.05;4.00;;;14.40;99.90;;;;;;5056269;28;20032;-66
2022/07/23 02:51:06;;;;;;;6.68;3.92;;;14.40;99.90;;;;;;5073887;28;20037;-66
2022/07/23 02:53:32;;;;;;;8.23;4.13;;;14.30;99.90;;;;;;5074241;28;20075;-67
2022/07/23 02:55:57;;;;;;;5.68;4.13;;;14.30;99.90;;;;;;5074168;28;20071;-66
2022/07/23 02:58:24;;;;;;;8.18;4.63;;;14.30;99.90;;;;;;5074231;28;20089;-66
2022/07/23 03:00:50;;;;;;;8.05;5.00;;;14.20;99.90;;;;;;5073861;28;20047;-67
2022/07/23 03:03:16;;;;;;;8.68;5.15;;;14.20;99.90;;;;;;5056259;28;20044;-66
2022/07/23 03:05:41;;;;;;;6.82;4.93;;;14.20;99.90;;;;;;5074166;28;20048;-67
2022/07/23 03:08:07;;;;;;;7.70;5.28;;;14.10;99.90;;;;;;5074089;28;20037;-67
2022/07/23 03:10:32;;;;;;;13.18;5.03;;;14.20;99.90;;;;;;5073750;28;20037;-67
2022/07/23 03:12:58;;;;;;;9.90;5.68;;;14.10;99.90;;;;;;5056142;28;20079;-67
2022/07/23 03:15:24;;;;;;;7.78;5.90;;;14.10;99.90;;;;;;5073929;28;20040;-67
2022/07/23 03:17:49;;;;;;;7.13;5.50;;;14.20;99.90;;;;;;5055804;28;20187;-66
2022/07/23 03:20:15;;;;;;;9.20;5.65;;;14.20;99.90;;;;;;5055666;28;20447;-66
2022/07/23 03:22:40;;;;;;;8.88;5.55;;;14.10;99.90;;;;;;5073888;28;20029;-67
2022/07/23 03:25:06;;;;;;;6.68;5.22;;;14.10;99.90;;;;;;5073804;28;20043;-66
2022/07/23 03:27:32;;;;;;;6.10;5.40;;;14.10;99.90;;;;;;5073629;28;20091;-66
2022/07/23 03:29:59;;;;;;;9.10;5.55;;;14.20;99.90;;;;;;5073342;28;20037;-66
2022/07/23 03:32:26;;;;;;;11.55;5.97;;;14.10;99.90;;;;;;5073522;28;20047;-66
2022/07/23 03:34:52;;;;;;;10.98;6.13;;;14.20;99.90;;;;;;5073617;28;20037;-67
2022/07/23 03:37:18;;;;;;;9.10;5.00;;;14.20;99.90;;;;;;5073354;28;20397;-67
2022/07/23 03:39:44;;;;;;;7.60;5.53;;;14.10;99.90;;;;;;5073150;28;20037;-67
2022/07/23 03:42:10;;;;;;;9.23;5.65;;;14.20;99.90;;;;;;5073290;28;20593;-66
2022/07/23 03:44:38;;;;;;;8.07;5.40;;;14.20;99.90;;;;;;5073360;28;20409;-67
2022/07/23 03:47:05;;;;;;;8.07;6.00;;;14.30;99.90;;;;;;5072435;28;20047;-67
2022/07/23 03:49:32;;;;;;;7.38;4.93;;;14.30;99.90;;;;;;5072719;28;20036;-66
2022/07/23 03:51:58;;;;;;;5.63;4.55;;;14.30;99.90;;;;;;5066479;28;20112;-67
2022/07/23 03:54:24;;;;;;;5.82;5.28;;;14.30;99.90;;;;;;5064782;28;20068;-66
2022/07/23 03:56:50;;;;;;;6.50;4.93;;;14.30;99.90;;;;;;5055206;28;20044;-66
2022/07/23 03:59:15;;;;;;;13.60;5.22;;;14.30;99.90;;;;;;5072719;28;20097;-66
2022/07/23 04:01:41;;;;;;;9.48;4.95;;;14.30;99.90;;;;;;5072763;28;20040;-66
2022/07/23 04:04:08;;;;;;;8.55;4.65;;;14.20;99.90;;;;;;5064609;28;20048;-66
2022/07/23 04:06:34;;;;;;;5.95;4.30;;;14.20;99.90;;;;;;5072836;28;20044;-66
2022/07/23 04:08:59;;;;;;;7.93;4.40;;;14.30;99.90;;;;;;5072807;28;20409;-67
2022/07/23 04:11:25;;;;;;;10.73;5.45;;;14.30;99.90;;;;;;5072478;28;20032;-67
2022/07/23 04:13:51;;;;;;;6.63;4.88;;;14.20;99.90;;;;;;5072708;28;20043;-67
2022/07/23 04:16:16;;;;;;;8.88;5.03;;;14.30;99.90;;;;;;5072524;28;20044;-67
2022/07/23 04:18:42;;;;;;;9.73;4.78;;;14.30;99.90;;;;;;5072722;28;20048;-67
2022/07/23 04:21:08;;;;;;;7.85;5.22;;;14.30;99.90;;;;;;5072309;28;20045;-66
2022/07/23 04:23:33;;;;;;;5.57;4.43;;;14.30;99.90;;;;;;5072626;28;20041;-67
2022/07/23 04:25:59;;;;;;;10.18;4.57;;;14.40;99.90;;;;;;5072401;28;20048;-67
2022/07/23 04:28:24;;;;;;;8.98;4.40;;;14.40;99.90;;;;;;5072382;28;20032;-66
2022/07/23 04:30:50;;;;;;;6.75;4.53;;;14.40;99.90;;;;;;5072039;28;20028;-66
2022/07/23 04:33:15;;;;;;;7.50;4.68;;;14.40;99.90;;;;;;5072422;28;20025;-67
2022/07/23 04:35:41;;;;;;;8.65;4.47;;;14.40;99.90;;;;;;5054404;28;20166;-67
2022/07/23 04:38:07;;;;;;;10.07;5.63;;;14.40;99.90;;;;;;5072228;28;20389;-67
2022/07/23 04:40:32;;;;;;;10.27;4.68;;;14.40;99.90;;;;;;5071999;28;20059;-67
2022/07/23 04:42:58;;;;;;;8.50;4.85;;;14.40;99.90;;;;;;5072129;28;20036;-67
2022/07/23 04:45:24;;;;;;;7.55;4.88;;;14.40;99.90;;;;;;5072230;28;20043;-67
2022/07/23 04:47:50;;;;;;;8.52;4.28;;;14.50;99.90;;;;;;5072077;28;20476;-67
2022/07/23 04:50:21;;;;;;;8.18;5.10;;;14.50;99.90;;;;;;5063272;28;20115;-67
2022/07/23 04:52:48;;;;;;;9.38;5.70;;;14.50;99.90;;;;;;5072068;28;20040;-66
2022/07/23 04:55:14;;;;;;;8.02;4.15;;;14.50;99.90;;;;;;5037441;28;20435;-66
2022/07/23 04:57:40;;;;;;;6.72;4.28;;;14.60;99.90;;;;;;5071472;28;20163;-66
2022/07/23 05:00:06;;;;;;;6.45;4.85;;;14.60;99.90;;;;;;5071540;28;20119;-67
2022/07/23 05:02:32;;;;;;;6.05;4.13;;;14.50;99.90;;;;;;5071755;28;20041;-66
2022/07/23 05:04:58;;;;;;;5.78;4.00;;;14.60;99.90;;;;;;5071989;28;20067;-66
2022/07/23 05:07:24;;;;;;;5.57;4.00;;;14.60;99.90;;;;;;5071706;28;20041;-66
2022/07/23 05:09:50;;;;;;;9.32;3.50;;;14.60;99.90;;;;;;5071515;28;20079;-67
2022/07/23 05:12:15;;;;;;;6.63;4.20;;;14.60;99.90;;;;;;5071758;28;20072;-66
2022/07/23 05:14:41;;;;;;;6.90;4.65;;;14.70;99.90;;;;;;5071716;28;20528;-67
2022/07/23 05:17:07;;;;;;;6.18;4.03;;;14.70;99.90;;;;;;5071732;28;20037;-67
2022/07/23 05:19:34;;;;;;;5.78;4.32;;;14.80;99.90;;;;;;5071445;28;20421;-67
2022/07/23 05:21:59;;;;;;;5.22;3.83;;;14.80;99.90;;;;;;5071629;28;20037;-66
2022/07/23 05:24:25;;;;;;;5.50;3.97;;;14.80;99.90;;;;;;5071597;28;20126;-67
2022/07/23 05:26:51;;;;;;;7.43;4.15;;;14.90;99.90;;;;;;5071450;28;20033;-67
2022/07/23 05:29:16;;;;;;;9.23;3.63;;;15.00;99.90;;;;;;5071484;28;20037;-66
2022/07/23 05:31:42;;;;;;;7.43;3.45;;;15.00;99.90;;;;;;5071676;28;20051;-67
2022/07/23 05:34:07;;;;;;;5.70;3.80;;;15.00;99.90;;;;;;5071655;28;20048;-66
2022/07/23 05:36:33;;;;;;;6.28;3.80;;;15.10;99.90;;;;;;5071682;28;20048;-67
2022/07/23 05:38:59;;;;;;;9.65;4.20;;;15.10;99.90;;;;;;5053821;28;20062;-67
2022/07/23 05:43:52;;;;;;;8.70;3.85;;;15.20;99.90;;;;;;5108329;28;20063;-70
2022/07/23 05:46:18;;;;;;;6.88;3.72;;;15.20;99.90;;;;;;5111948;28;20048;-69
2022/07/23 05:48:45;;;;;;;6.95;3.63;;;15.20;99.90;;;;;;5111914;28;20402;-70
2022/07/23 05:51:11;;;;;;;7.35;3.47;;;15.30;99.90;;;;;;5111128;28;20035;-69
2022/07/23 05:53:38;;;;;;;6.68;3.58;;;15.40;99.90;;;;;;5111832;28;20508;-69
2022/07/23 05:56:03;;;;;;;7.72;3.88;;;15.50;99.90;;;;;;5111837;28;20085;-69
2022/07/23 05:58:29;;;;;;;5.43;3.55;;;15.50;99.90;;;;;;5111752;28;20455;-69
2022/07/23 06:00:54;;;;;;;4.32;2.88;;;15.60;99.90;;;;;;5111630;28;20442;-69
2022/07/23 06:03:20;;;;;;;5.03;3.63;;;15.70;99.90;;;;;;5111656;28;20487;-69
2022/07/23 06:05:45;;;;;;;6.80;3.17;;;15.80;99.90;;;;;;5111822;28;20412;-69
2022/07/23 06:08:11;;;;;;;7.60;2.78;;;15.80;99.90;;;;;;5110954;28;20588;-69
2022/07/23 06:10:37;;;;;;;4.95;2.85;;;15.90;99.90;;;;;;5102390;28;20505;-69
2022/07/23 06:13:03;;;;;;;9.02;2.65;;;16.20;99.90;;;;;;5097742;28;20059;-69
2022/07/23 06:15:29;;;;;;;5.60;2.40;;;16.60;99.90;;;;;;5095159;28;20032;-70
2022/07/23 06:17:54;;;;;;;5.15;2.38;;;17.10;99.90;;;;;;5095230;28;20047;-70
2022/07/23 06:20:20;;;;;;;4.90;2.10;;;17.60;99.90;;;;;;5094800;28;20040;-70
2022/07/23 06:22:45;;;;;;;4.53;2.63;;;18.00;99.90;;;;;;5094946;28;20075;-70
2022/07/23 06:25:11;;;;;;;5.93;2.00;;;18.00;99.90;;;;;;5094979;28;20040;-70
2022/07/23 06:27:37;;;;;;;5.78;2.25;;;17.80;99.90;;;;;;5094798;28;20043;-70
2022/07/23 06:30:02;;;;;;;4.03;1.80;;;17.70;99.90;;;;;;5094821;28;20508;-70
2022/07/23 06:32:28;;;;;;;2.45;1.60;;;17.60;99.90;;;;;;5094934;28;20471;-68
2022/07/23 06:34:54;;;;;;;5.07;1.30;;;17.50;99.90;;;;;;5094869;28;20036;-67
2022/07/23 06:37:19;;;;;;;3.03;1.40;;;17.50;99.90;;;;;;5094836;28;20048;-70
2022/07/23 06:39:45;;;;;;;4.05;1.80;;;17.40;99.90;;;;;;5094380;28;20085;-70
2022/07/23 06:42:11;;;;;;;2.22;1.40;;;17.30;99.90;;;;;;5096827;28;20035;-70
2022/07/23 06:44:37;;;;;;;5.82;1.55;;;17.20;99.90;;;;;;5094565;28;20489;-70
2022/07/23 06:47:03;;;;;;;5.10;1.00;;;17.30;99.90;;;;;;5094547;28;20047;-70
2022/07/23 06:49:29;;;;;;;3.17;1.40;;;17.10;99.90;;;;;;5094433;28;20028;-70
2022/07/23 06:51:54;;;;;;;2.88;1.23;;;17.20;99.90;;;;;;5098587;28;20028;-70
2022/07/23 06:54:20;;;;;;;5.93;1.58;;;17.10;99.90;;;;;;5114856;28;20088;-70
2022/07/23 06:56:45;;;;;;;3.55;1.40;;;17.10;99.90;;;;;;5114763;28;20040;-70
2022/07/23 06:59:11;;;;;;;2.00;1.17;;;17.10;99.90;;;;;;5114786;28;20087;-70
2022/07/23 07:01:36;;;;;;;3.88;1.40;;;17.10;99.90;;;;;;5114582;28;20461;-70
2022/07/23 07:04:02;;;;;;;3.92;1.70;;;17.20;99.90;;;;;;5114767;28;20039;-70
2022/07/23 07:06:28;;;;;;;2.65;1.33;;;17.30;99.90;;;;;;5113852;28;20066;-69
2022/07/23 07:08:53;;;;;;;1.70;1.30;;;17.30;99.90;;;;;;5096781;28;20040;-67
2022/07/23 07:11:19;;;;;;;5.75;1.67;;;17.40;99.90;;;;;;5093837;28;20034;-68
2022/07/23 07:13:44;;;;;;;9.32;2.05;;;17.40;99.90;;;;;;5094215;28;20046;-69
2022/07/23 07:16:10;;;;;;;4.22;1.48;;;17.60;99.90;;;;;;5093845;28;20485;-70
2022/07/23 07:18:35;;;;;;;4.57;1.50;;;17.50;99.90;;;;;;5093855;28;20397;-70
2022/07/23 07:21:01;;;;;;;5.03;1.45;;;17.50;99.90;;;;;;5093362;28;20497;-70
2022/07/23 07:23:26;;;;;;;4.03;1.10;;;17.50;99.90;;;;;;5093871;28;20052;-70
2022/07/23 07:25:52;;;;;;;4.15;1.33;;;17.50;99.90;;;;;;5093788;28;20032;-72
2022/07/23 07:28:17;;;;;;;3.38;1.02;;;17.70;99.90;;;;;;5093827;28;20412;-72
2022/07/23 07:30:43;;;;;;;3.08;1.25;;;18.20;99.90;;;;;;5093407;28;20042;-73
2022/07/23 07:33:08;;;;;;;2.38;0.90;;;18.30;99.90;;;;;;5093700;28;20036;-72
2022/07/23 07:35:34;;;;;;;2.35;0.93;;;18.40;99.90;;;;;;5093716;28;20071;-72
2022/07/23 07:38:00;;;;;;;2.40;1.00;;;18.50;99.90;;;;;;5093635;28;20040;-73
2022/07/23 07:40:26;;;;;;;2.72;1.00;;;18.40;99.90;;;;;;5093207;28;20083;-72
2022/07/23 07:42:53;;;;;;;1.65;0.98;;;18.40;99.90;;;;;;5093467;28;20040;-72
2022/07/23 07:45:23;;;;;;;3.58;0.95;;;18.50;99.90;;;;;;5093639;28;20040;-73
2022/07/23 07:47:49;;;;;;;4.88;1.45;;;18.90;99.90;;;;;;5093424;28;20047;-73
2022/07/23 07:50:15;;;;;;;1.75;0.90;;;19.40;99.90;;;;;;5091926;28;20036;-73
2022/07/23 07:52:40;;;;;;;3.38;1.25;;;19.80;99.90;;;;;;5093200;28;20043;-72
2022/07/23 07:55:08;;;;;;;2.78;0.60;;;20.20;99.90;;;;;;5093540;28;20478;-73
2022/07/23 07:57:35;;;;;;;1.85;0.80;;;20.70;99.90;;;;;;5093367;28;20036;-73
2022/07/23 08:00:01;;;;;;;1.88;0.40;;;20.80;99.90;;;;;;5092818;28;20058;-73
2022/07/23 08:02:26;;;;;;;1.02;0.40;;;21.00;99.00;;;;;;5093123;28;20493;-72
2022/07/23 08:04:52;;;;;;;1.20;0.50;;;21.40;97.70;;;;;;5093065;28;20075;-71
2022/07/23 08:07:18;;;;;;;3.53;0.52;;;21.40;96.70;;;;;;5091681;28;20044;-71
2022/07/23 08:09:44;;;;;;;1.42;0.80;;;21.70;95.10;;;;;;5092908;28;20036;-71
2022/07/23 08:12:10;;;;;;;2.75;0.55;;;22.10;94.40;;;;;;5093103;28;20035;-71
2022/07/23 08:14:35;;;;;;;1.63;0.55;;;21.90;93.60;;;;;;5093048;28;20085;-71
2022/07/23 08:17:01;;;;;;;3.13;0.50;;;21.70;93.30;;;;;;5093020;28;20516;-71
2022/07/23 08:19:26;;;;;;;0.38;0.30;;;21.40;93.70;;;;;;5092537;28;20551;-71
2022/07/23 08:21:52;;;;;;;4.95;0.73;;;20.90;94.00;;;;;;5092673;28;20036;-71
2022/07/23 08:24:17;;;;;;;1.13;0.30;;;20.80;94.90;;;;;;5092642;28;20040;-71
2022/07/23 08:26:43;;;;;;;1.42;0.50;;;20.50;96.30;;;;;;5092615;28;20043;-71
2022/07/23 08:29:09;;;;;;;3.25;0.70;;;20.20;96.70;;;;;;5092658;28;20119;-71
2022/07/23 08:31:35;;;;;;;3.30;0.60;;;19.80;96.90;;;;;;5091794;28;20136;-73
2022/07/23 08:34:02;;;;;;;2.13;0.52;;;19.80;97.00;;;;;;5092629;28;20091;-71
2022/07/23 08:36:28;;;;;;;3.50;0.82;;;19.80;98.00;;;;;;5092763;28;20048;-71
2022/07/23 08:38:54;;;;;;;1.73;0.70;;;19.80;98.50;;;;;;5092580;28;20036;-70
2022/07/23 08:41:20;;;;;;;2.88;0.52;;;19.70;98.70;;;;;;5091167;28;20175;-71
2022/07/23 08:43:46;;;;;;;2.67;0.45;;;20.00;99.00;;;;;;5092326;28;20044;-71
2022/07/23 08:46:13;;;;;;;1.50;0.50;;;20.30;97.90;;;;;;5092637;28;20042;-71
2022/07/23 08:48:39;;;;;;;1.90;0.55;;;20.30;96.50;;;;;;5092520;28;20093;-71
2022/07/23 08:51:06;;;;;;;0.85;0.43;;;20.10;96.50;;;;;;5091948;28;20032;-71
2022/07/23 08:53:33;;;;;;;0.55;0.40;;;20.00;96.10;;;;;;5092233;28;20645;-71
2022/07/23 08:56:02;;;;;;;2.60;0.40;;;19.90;96.10;;;;;;5092207;28;20488;-71
2022/07/23 08:58:27;;;;;;;2.45;1.02;;;19.70;96.10;;;;;;5092287;28;20039;-71
2022/07/23 09:00:53;;;;;;;1.02;0.43;;;19.50;96.20;;;;;;5091988;28;20085;-71
2022/07/23 09:03:22;;;;;;;1.63;0.68;;;19.60;97.10;;;;;;5090987;28;20105;-71
2022/07/23 09:05:50;;;;;;;1.70;0.70;;;19.60;97.10;;;;;;5091970;28;20036;-71
2022/07/23 09:08:18;;;;;;;0.98;0.40;;;19.60;96.50;;;;;;5092111;28;20473;-71
2022/07/23 09:11:08;;;;;;;1.58;0.47;;;19.90;96.50;;;;;;5091809;28;20039;-71
2022/07/23 09:13:54;;;;;;;1.05;0.50;;;20.50;95.50;;;;;;5091974;28;20036;-71
2022/07/23 09:16:30;;;;;;;2.15;0.50;;;20.70;94.90;;;;;;5091860;28;20038;-71
2022/07/23 09:19:04;;;;;;;1.88;0.60;;;20.60;94.40;;;;;;5091982;28;20036;-71
2022/07/23 09:21:35;;;;;;;1.45;0.60;;;20.50;92.80;;;;;;5091717;28;20082;-71
2022/07/23 09:24:03;;;;;;;3.38;0.47;;;20.30;93.90;;;;;;5092041;28;20036;-71
2022/07/23 09:26:34;;;;;;;3.75;0.70;;;20.10;94.20;;;;;;5091796;28;20044;-71
2022/07/23 09:29:11;;;;;;;0.90;0.43;;;19.90;94.40;;;;;;5092101;28;20040;-71
2022/07/23 09:32:01;;;;;;;3.35;0.45;;;20.00;95.60;;;;;;5092127;28;20036;-71
2022/07/23 09:34:28;;;;;;;2.28;0.50;;;20.40;94.40;;;;;;5092017;28;20101;-71
2022/07/23 09:37:13;;;;;;;0.90;0.45;;;21.00;93.90;;;;;;5091742;28;20039;-72
2022/07/23 09:39:39;;;;;;;2.42;0.60;;;21.30;92.80;;;;;;5091560;28;20032;-71
2022/07/23 09:42:31;;;;;;;2.58;0.65;;;21.20;92.20;;;;;;5091607;28;20032;-71
2022/07/23 09:44:58;;;;;;;1.58;0.57;;;20.90;90.70;;;;;;5093024;28;20075;-70
2022/07/23 09:47:26;;;;;;;1.50;0.65;;;20.70;91.90;;;;;;5095620;28;20048;-70
2022/07/23 09:50:09;;;;;;;2.92;0.82;;;20.50;93.00;;;;;;5095590;28;20093;-71
2022/07/23 09:52:49;;;;;;;1.67;0.50;;;20.40;93.80;;;;;;5095779;28;20105;-73
2022/07/23 09:55:16;;;;;;;1.67;0.50;;;20.50;94.00;;;;;;5095600;28;20032;-73
2022/07/23 09:57:45;;;;;;;2.10;0.63;;;20.70;94.00;;;;;;5095489;28;20044;-73
2022/07/23 10:00:13;;;;;;;2.63;0.98;;;20.60;93.30;;;;;;5095174;28;20044;-73
2022/07/23 10:02:39;;;;;;;1.83;0.80;;;20.90;93.10;;;;;;5095606;28;20067;-73
2022/07/23 10:05:07;;;;;;;1.35;0.60;;;21.20;92.80;;;;;;5095565;28;20040;-73
2022/07/23 10:07:39;;;;;;;2.50;0.80;;;21.40;92.50;;;;;;5095379;28;20127;-73
2022/07/23 10:10:06;;;;;;;2.97;0.70;;;21.40;93.20;;;;;;5095192;28;20028;-73
2022/07/23 10:15:07;;;;;;;2.45;0.70;;;21.40;93.10;;;;;;5095442;28;20040;-73
2022/07/23 10:17:34;;;;;;;3.95;0.70;;;21.20;93.60;;;;;;5095336;28;20075;-73
2022/07/23 10:19:59;;;;;;;1.95;0.88;;;21.10;92.80;;;;;;5094957;28;20040;-73
2022/07/23 10:22:32;;;;;;;3.22;0.88;;;21.10;92.70;;;;;;5095073;28;20085;-73
2022/07/23 10:25:16;;;;;;;2.72;0.50;;;21.00;93.20;;;;;;5095017;28;20089;-73
2022/07/23 10:28:26;;;;;;;4.13;0.60;;;20.70;92.30;;;;;;5095087;28;20046;-73
2022/07/23 10:31:25;;;;;;;1.80;0.80;;;20.80;93.20;;;;;;5094643;28;20118;-73
2022/07/23 10:34:11;;;;;;;3.92;0.65;;;20.70;92.90;;;;;;5094747;28;20115;-73
2022/07/23 10:36:52;;;;;;;3.50;1.00;;;20.70;93.30;;;;;;5094969;28;20104;-73
2022/07/23 10:39:26;;;;;;;3.00;0.70;;;20.60;93.20;;;;;;5094576;28;20055;-73
2022/07/23 10:41:52;;;;;;;2.17;0.95;;;20.50;93.00;;;;;;5094537;28;20493;-73
2022/07/23 10:44:22;;;;;;;2.10;0.70;;;20.50;93.60;;;;;;5094888;28;20044;-73
2022/07/23 10:47:43;;;;;;;2.55;0.98;;;20.50;93.10;;;;;;5094726;28;20048;-73
2022/07/23 10:49:44;;;;;;;5.78;1.35;;;20.50;93.80;;;;;;5083268;28;20100;-73
2022/07/23 10:52:22;;;;;;;1.20;0.80;;;20.40;94.40;;;;;;5094678;28;20119;-73
2022/07/23 10:55:16;;;;;;;4.20;0.98;;;20.40;94.10;;;;;;5093853;28;20040;-73
2022/07/23 10:57:50;;;;;;;3.53;0.82;;;20.40;94.70;;;;;;5094298;28;20047;-73
2022/07/23 11:00:24;;;;;;;5.75;0.80;;;20.40;94.90;;;;;;5094002;28;20047;-73
2022/07/23 11:02:52;;;;;;;2.92;0.80;;;20.30;95.00;;;;;;5094486;28;20040;-73
2022/07/23 11:05:24;;;;;;;2.08;0.80;;;20.30;95.00;;;;;;5094405;28;20044;-73
2022/07/23 11:08:04;;;;;;;2.20;0.95;;;20.30;95.50;;;;;;5094208;28;20059;-74
2022/07/23 11:10:38;;;;;;;2.78;0.95;;;20.30;95.40;;;;;;5093857;28;20104;-73
2022/07/23 11:13:22;;;;;;;2.92;1.00;;;20.40;95.50;;;;;;5094082;28;20501;-73
2022/07/23 11:16:13;;;;;;;3.38;0.80;;;20.30;95.90;;;;;;5094257;28;20035;-73
2022/07/23 11:18:47;;;;;;;3.17;0.55;;;20.40;95.00;;;;;;5094053;28;20028;-73
2022/07/23 11:21:23;;;;;;;3.28;1.10;;;20.30;96.00;;;;;;5093613;28;20087;-73
2022/07/23 11:24:10;;;;;;;2.05;1.08;;;20.20;95.60;;;;;;5092933;28;20043;-73
2022/07/23 11:26:46;;;;;;;5.07;0.82;;;20.20;95.30;;;;;;5093716;28;20044;-73
2022/07/23 11:29:27;;;;;;;5.30;0.90;;;20.00;95.70;;;;;;5093724;28;20040;-73
2022/07/23 11:31:56;;;;;;;3.42;0.88;;;20.10;96.00;;;;;;5092370;28;20048;-73
2022/07/23 11:34:42;;;;;;;1.88;1.00;;;20.00;95.90;;;;;;5093864;28;20035;-73
2022/07/23 11:37:13;;;;;;;0.77;0.60;;;20.20;95.90;;;;;;5093736;28;20048;-73
2022/07/23 11:39:39;;;;;;;2.75;0.98;;;20.30;96.70;;;;;;5093371;28;20081;-73
2022/07/23 11:42:07;;;;;;;1.27;1.10;;;20.40;96.90;;;;;;5113785;22;20393;-70
2022/07/23 11:44:35;;;;;;;2.78;0.85;;;20.40;96.80;;;;;;5073572;28;20032;-70
2022/07/23 11:47:03;;;;;;;1.52;0.60;;;20.30;96.50;;;;;;5073468;28;20044;-70
2022/07/23 11:49:29;;;;;;;2.95;1.00;;;20.20;95.80;;;;;;5054686;28;20127;-70
2022/07/23 11:52:12;;;;;;;1.88;0.85;;;20.20;96.20;;;;;;5072914;28;20083;-70
2022/07/23 11:54:50;;;;;;;;;;;20.10;96.40;;;;;;5073521;28;20122;-70
2022/07/23 11:57:16;;;;;;;2.05;0.65;;;19.90;97.30;;;;;;5073335;28;19916;-70
2022/07/23 11:59:43;;;;;;;1.27;0.85;;;20.00;97.20;;;;;;5072879;28;20086;-70
2022/07/23 12:02:09;;;;;;;4.20;1.08;;;20.10;96.70;;;;;;5072977;28;20048;-70
2022/07/23 12:04:39;;;;;;;2.53;0.90;;;20.10;97.20;;;;;;5073156;28;20040;-70
2022/07/23 12:07:43;;;;;;;2.58;1.00;;;20.20;96.70;;;;;;5071803;28;20036;-70
2022/07/23 12:10:50;;;;;;;2.55;0.90;;;20.40;96.80;;;;;;5054833;28;20032;-70
2022/07/23 12:13:18;;;;;;;2.38;1.20;;;20.40;96.90;;;;;;5010614;28;20046;-70
2022/07/23 12:15:50;;;;;;;2.63;1.08;;;20.70;96.80;;;;;;5010690;28;20615;-70
2022/07/23 12:18:21;;;;;;;3.25;1.20;;;20.80;96.00;;;;;;5043122;28;20123;-70
2022/07/23 12:20:56;;;;;;;2.55;1.25;;;20.60;95.60;;;;;;5072462;28;20397;-70
2022/07/23 12:23:26;;;;;;;5.38;1.45;;;20.70;96.30;;;;;;5072432;28;20037;-70
2022/07/23 12:25:53;;;;;;;3.95;1.42;;;20.80;96.50;;;;;;5054324;28;20038;-68
2022/07/23 12:28:21;;;;;;;4.68;1.42;;;21.20;95.70;;;;;;5072380;28;20036;-69
2022/07/23 12:30:48;;;;;;;3.90;1.15;;;21.30;95.10;;;;;;5072342;28;20379;-68
2022/07/23 12:33:35;;;;;;;7.63;1.52;;;21.30;95.10;;;;;;5072320;28;20494;-67
2022/07/23 12:36:04;;;;;;;3.97;1.40;;;21.50;95.10;;;;;;5072153;28;20127;-67
2022/07/23 12:38:39;;;;;;;3.10;1.48;;;21.70;94.50;;;;;;5072546;28;20108;-68
2022/07/23 12:41:05;;;;;;;1.58;0.82;;;21.80;93.00;;;;;;5072045;28;20068;-68
2022/07/23 12:43:43;;;;;;;4.88;1.65;;;21.70;93.20;;;;;;5072218;28;20070;-68
2022/07/23 12:46:10;;;;;;;3.28;0.90;;;21.70;92.50;;;;;;5072242;28;20041;-68
2022/07/23 12:48:39;;;;;;;4.57;1.30;;;21.60;93.30;;;;;;5054188;28;20506;-68
2022/07/23 12:51:23;;;;;;;2.83;0.98;;;21.40;93.90;;;;;;5072063;28;20075;-68
2022/07/23 12:53:51;;;;;;;2.15;1.08;;;21.40;93.60;;;;;;5063198;28;20060;-68
2022/07/23 12:56:20;;;;;;;1.98;1.27;;;21.50;93.20;;;;;;5061033;28;20032;-68